Time;durP1;ratioP1;P1;durP2;ratioP2;P2;SDS_P1;SDS_P2;PMS_P1;PMS_P2;Temp;Humidity;BMP_temperature;BMP_pressure;BME280_temperature;BME280_humidity;BME280_pressure;Samples;Min_cycle;Max_cycle;Signal;HPM_P1;HPM_P2
2022/05/21 00:02:01;;;;;;;0.30;0.30;;;18.50;99.90;;;;;;5034171;28;20913;-71
2022/05/21 00:04:28;;;;;;;0.30;0.30;;;18.50;99.90;;;;;;5036091;28;20406;-70
2022/05/21 00:06:54;;;;;;;0.60;0.60;;;18.40;99.90;;;;;;5035421;28;20418;-70
2022/05/21 00:09:19;;;;;;;0.30;0.30;;;18.40;99.90;;;;;;5035235;28;20429;-70
2022/05/21 00:11:45;;;;;;;0.30;0.30;;;18.40;99.90;;;;;;5035435;28;20463;-70
2022/05/21 00:14:11;;;;;;;0.30;0.30;;;18.40;99.90;;;;;;5035306;28;20233;-70
2022/05/21 00:16:36;;;;;;;0.30;0.30;;;18.50;99.90;;;;;;5035306;28;20592;-70
2022/05/21 00:19:02;;;;;;;0.37;0.37;;;18.40;99.90;;;;;;5035365;28;20238;-68
2022/05/21 00:21:28;;;;;;;0.30;0.30;;;18.50;99.90;;;;;;5035594;28;20508;-70
2022/05/21 00:23:54;;;;;;;0.57;0.57;;;18.40;99.90;;;;;;5034888;28;20406;-69
2022/05/21 00:26:20;;;;;;;0.30;0.30;;;18.40;99.90;;;;;;5035139;28;20171;-70
2022/05/21 00:28:47;;;;;;;0.30;0.30;;;18.40;99.90;;;;;;5034868;28;20194;-69
2022/05/21 00:31:15;;;;;;;0.30;0.30;;;18.40;99.90;;;;;;5035063;28;20456;-69
2022/05/21 00:33:43;;;;;;;7.93;0.83;;;18.40;99.90;;;;;;5034713;28;20409;-70
2022/05/21 00:36:10;;;;;;;0.30;0.30;;;18.40;99.90;;;;;;5034768;28;20449;-71
2022/05/21 00:38:37;;;;;;;0.60;0.60;;;18.40;99.90;;;;;;5034764;28;20805;-69
2022/05/21 00:41:03;;;;;;;1.53;1.23;;;18.50;99.90;;;;;;5034805;28;20493;-71
2022/05/21 00:43:49;;;;;;;0.30;0.30;;;18.40;99.90;;;;;;5034536;28;20410;-69
2022/05/21 00:46:24;;;;;;;2.30;0.80;;;18.40;99.90;;;;;;5034859;28;20432;-70
2022/05/21 00:49:06;;;;;;;0.40;0.40;;;18.40;99.90;;;;;;5034628;28;20443;-70
2022/05/21 00:51:54;;;;;;;0.30;0.30;;;18.40;99.90;;;;;;5034555;28;20405;-69
2022/05/21 00:54:23;;;;;;;0.30;0.30;;;18.20;99.90;;;;;;5034255;28;20417;-68
2022/05/21 00:56:56;;;;;;;1.13;1.13;;;18.10;99.90;;;;;;5034608;28;20834;-70
2022/05/21 01:02:08;;;;;;;0.70;0.70;;;18.10;99.90;;;;;;5034426;28;20413;-70
2022/05/21 01:04:36;;;;;;;0.30;0.30;;;18.10;99.90;;;;;;5034440;28;20882;-71
2022/05/21 01:07:03;;;;;;;0.40;0.40;;;18.00;99.90;;;;;;5032949;28;20770;-70
2022/05/21 01:09:29;;;;;;;0.40;0.40;;;18.00;99.90;;;;;;5034211;28;20437;-70
2022/05/21 01:11:56;;;;;;;0.40;0.40;;;17.90;99.90;;;;;;5034307;28;20421;-68
2022/05/21 01:14:22;;;;;;;0.63;0.63;;;17.90;99.90;;;;;;5033815;28;20421;-70
2022/05/21 01:16:49;;;;;;;0.30;0.30;;;17.80;99.90;;;;;;5033962;28;20627;-69
2022/05/21 01:19:15;;;;;;;0.40;0.40;;;17.80;99.90;;;;;;5033697;28;21071;-70
2022/05/21 01:21:41;;;;;;;0.40;0.40;;;17.80;99.90;;;;;;5034171;28;20485;-69
2022/05/21 01:24:09;;;;;;;0.30;0.30;;;17.80;99.90;;;;;;5033856;28;20398;-70
2022/05/21 01:26:35;;;;;;;0.37;0.37;;;17.70;99.90;;;;;;5034147;28;20524;-69
2022/05/21 01:29:09;;;;;;;0.30;0.30;;;17.60;99.90;;;;;;5033844;28;20436;-68
2022/05/21 01:31:35;;;;;;;0.30;0.30;;;17.50;99.90;;;;;;5034018;28;20489;-71
2022/05/21 01:34:01;;;;;;;0.83;0.60;;;17.50;99.90;;;;;;5033604;28;20925;-70
2022/05/21 01:36:26;;;;;;;0.30;0.30;;;17.40;99.90;;;;;;5034104;28;20209;-68
2022/05/21 01:38:52;;;;;;;3.27;3.07;;;17.30;99.90;;;;;;5033797;28;20194;-70
2022/05/21 01:41:17;;;;;;;0.40;0.40;;;17.30;99.90;;;;;;5033677;28;20174;-70
2022/05/21 01:46:28;;;;;;;0.30;0.30;;;17.20;99.90;;;;;;5033783;28;20178;-70
2022/05/21 01:48:54;;;;;;;0.30;0.30;;;17.20;99.90;;;;;;5033708;28;20503;-70
2022/05/21 01:51:20;;;;;;;0.30;0.30;;;17.10;99.90;;;;;;5033857;28;20445;-69
2022/05/21 01:53:46;;;;;;;0.30;0.30;;;17.10;99.90;;;;;;5033559;28;20171;-69
2022/05/21 01:56:12;;;;;;;0.40;0.40;;;17.10;99.90;;;;;;5033597;28;20194;-69
2022/05/21 01:58:39;;;;;;;0.40;0.40;;;17.10;99.90;;;;;;5033534;28;20422;-69
2022/05/21 02:01:06;;;;;;;0.90;0.87;;;17.10;99.90;;;;;;5033612;28;20406;-69
2022/05/21 02:03:32;;;;;;;0.40;0.40;;;17.00;99.90;;;;;;5033266;28;20405;-70
2022/05/21 02:05:58;;;;;;;0.30;0.30;;;16.90;99.90;;;;;;5033497;28;20828;-71
2022/05/21 02:08:23;;;;;;;0.70;0.70;;;16.80;99.90;;;;;;5033607;28;20434;-69
2022/05/21 02:10:51;;;;;;;0.30;0.30;;;16.70;99.90;;;;;;5033381;28;20685;-70
2022/05/21 02:13:22;;;;;;;0.40;0.40;;;16.60;99.90;;;;;;5033222;28;20596;-70
2022/05/21 02:15:48;;;;;;;0.30;0.30;;;16.60;99.90;;;;;;5033298;28;20406;-70
2022/05/21 02:18:15;;;;;;;0.30;0.30;;;16.50;99.90;;;;;;5033215;28;20905;-70
2022/05/21 02:20:41;;;;;;;0.80;0.70;;;16.40;99.90;;;;;;5033162;28;20183;-69
2022/05/21 02:23:07;;;;;;;0.30;0.30;;;16.30;99.90;;;;;;5033104;28;20988;-69
2022/05/21 02:25:33;;;;;;;0.30;0.30;;;16.20;99.90;;;;;;5035737;28;20252;-70
2022/05/21 02:27:59;;;;;;;0.77;0.77;;;16.10;99.90;;;;;;5037448;28;20398;-70
2022/05/21 02:30:25;;;;;;;0.30;0.30;;;16.00;99.90;;;;;;5037366;28;20432;-69
2022/05/21 02:32:50;;;;;;;0.30;0.30;;;16.00;99.90;;;;;;5035710;28;20235;-70
2022/05/21 02:35:16;;;;;;;0.30;0.30;;;16.00;99.90;;;;;;5037189;28;20181;-69
2022/05/21 02:40:26;;;;;;;0.30;0.30;;;16.00;99.90;;;;;;5036969;28;20206;-69
2022/05/21 02:42:54;;;;;;;0.30;0.30;;;16.10;99.90;;;;;;5036820;28;20404;-70
2022/05/21 02:45:22;;;;;;;0.40;0.40;;;16.00;99.90;;;;;;5036997;28;20401;-70
2022/05/21 02:47:49;;;;;;;0.40;0.40;;;16.00;99.90;;;;;;5036964;28;20410;-69
2022/05/21 02:50:17;;;;;;;0.30;0.30;;;16.00;99.90;;;;;;5036754;28;20535;-70
2022/05/21 02:52:43;;;;;;;0.57;0.57;;;16.10;99.90;;;;;;5036732;28;20420;-69
2022/05/21 02:55:10;;;;;;;0.30;0.30;;;16.00;99.90;;;;;;5036903;28;20768;-70
2022/05/21 02:57:37;;;;;;;0.60;0.60;;;16.00;99.90;;;;;;5036625;28;20538;-70
2022/05/21 03:00:21;;;;;;;0.30;0.30;;;16.00;99.90;;;;;;5036638;28;20418;-70
2022/05/21 03:02:47;;;;;;;0.30;0.30;;;16.00;99.90;;;;;;5036600;28;20484;-69
2022/05/21 03:05:13;;;;;;;0.30;0.30;;;16.00;99.90;;;;;;5036627;28;20442;-71
2022/05/21 03:07:41;;;;;;;0.40;0.40;;;16.00;99.90;;;;;;5035435;28;20240;-70
2022/05/21 03:10:20;;;;;;;0.33;0.33;;;16.00;99.90;;;;;;5036416;28;20524;-71
2022/05/21 03:12:55;;;;;;;0.30;0.30;;;15.80;99.90;;;;;;5036434;28;20411;-71
2022/05/21 03:15:23;;;;;;;0.30;0.30;;;15.80;99.90;;;;;;5036626;28;20407;-69
2022/05/21 03:17:49;;;;;;;0.40;0.40;;;15.70;99.90;;;;;;5036452;28;20468;-69
2022/05/21 03:20:17;;;;;;;3.70;1.60;;;15.60;99.90;;;;;;5036057;28;20449;-70
2022/05/21 03:22:43;;;;;;;0.30;0.30;;;15.60;99.90;;;;;;5036300;28;20209;-70
2022/05/21 03:25:10;;;;;;;0.40;0.40;;;15.60;99.90;;;;;;5036240;28;20797;-70
2022/05/21 03:27:36;;;;;;;0.30;0.30;;;15.50;99.90;;;;;;5036381;28;20402;-70
2022/05/21 03:30:04;;;;;;;0.30;0.30;;;15.40;99.90;;;;;;5036078;28;20490;-69
2022/05/21 03:32:30;;;;;;;0.50;0.50;;;15.30;99.90;;;;;;5035942;28;20500;-70
2022/05/21 03:34:56;;;;;;;0.30;0.30;;;15.30;99.90;;;;;;5035967;28;20433;-70
2022/05/21 03:37:21;;;;;;;1.00;0.93;;;15.20;99.90;;;;;;5035895;28;20202;-71
2022/05/21 03:39:47;;;;;;;0.30;0.30;;;15.20;99.90;;;;;;5035840;28;20434;-69
2022/05/21 03:42:13;;;;;;;0.30;0.30;;;15.20;99.90;;;;;;5036076;28;20604;-68
2022/05/21 03:44:38;;;;;;;0.30;0.30;;;15.30;99.90;;;;;;5036067;28;20518;-70
2022/05/21 03:47:04;;;;;;;0.30;0.30;;;15.30;99.90;;;;;;5034650;28;20178;-70
2022/05/21 03:49:30;;;;;;;0.30;0.30;;;15.20;99.90;;;;;;5035896;28;20187;-69
2022/05/21 03:51:55;;;;;;;0.30;0.30;;;15.30;99.90;;;;;;5035718;28;20440;-69
2022/05/21 03:54:21;;;;;;;0.30;0.30;;;15.20;99.90;;;;;;5035593;28;20237;-69
2022/05/21 03:56:47;;;;;;;0.70;0.70;;;15.20;99.90;;;;;;5035606;28;20277;-70
2022/05/21 03:59:13;;;;;;;0.30;0.30;;;15.20;99.90;;;;;;5035872;28;20265;-70
2022/05/21 04:01:41;;;;;;;0.30;0.30;;;15.30;99.90;;;;;;5035736;28;20202;-70
2022/05/21 04:04:07;;;;;;;0.30;0.30;;;15.30;99.90;;;;;;5035417;28;20177;-71
2022/05/21 04:06:33;;;;;;;0.40;0.40;;;15.40;99.90;;;;;;5035308;28;20449;-70
2022/05/21 04:08:58;;;;;;;0.30;0.30;;;15.40;99.90;;;;;;5035404;28;20462;-70
2022/05/21 04:11:24;;;;;;;0.43;0.43;;;15.30;99.90;;;;;;5035388;28;20168;-70
2022/05/21 04:13:49;;;;;;;0.30;0.30;;;15.40;99.90;;;;;;5035347;28;20173;-71
2022/05/21 04:16:15;;;;;;;0.30;0.30;;;15.40;99.90;;;;;;5035393;28;20202;-71
2022/05/21 04:18:41;;;;;;;0.30;0.30;;;15.40;99.90;;;;;;5035179;28;20685;-70
2022/05/21 04:21:06;;;;;;;0.30;0.30;;;15.30;99.90;;;;;;5035150;28;20267;-68
2022/05/21 04:23:32;;;;;;;0.30;0.30;;;15.30;99.90;;;;;;5035033;28;20176;-69
2022/05/21 04:25:57;;;;;;;0.30;0.30;;;15.30;99.90;;;;;;5035146;28;20295;-71
2022/05/21 04:28:23;;;;;;;0.30;0.30;;;15.30;99.90;;;;;;5033875;28;20167;-70
2022/05/21 04:30:49;;;;;;;0.30;0.30;;;15.30;99.90;;;;;;5033678;28;20170;-70
2022/05/21 04:33:14;;;;;;;0.30;0.30;;;15.20;99.90;;;;;;5034813;28;20185;-68
2022/05/21 04:38:38;;;;;;;0.30;0.30;;;15.00;99.90;;;;;;5012068;28;20203;-69
2022/05/21 04:41:03;;;;;;;1.23;0.83;;;14.80;99.90;;;;;;5034792;28;20774;-70
2022/05/21 04:43:29;;;;;;;0.30;0.30;;;14.90;99.90;;;;;;5034575;28;20190;-69
2022/05/21 04:45:57;;;;;;;0.30;0.30;;;14.90;99.90;;;;;;5034699;28;20167;-69
2022/05/21 04:48:23;;;;;;;0.30;0.30;;;15.00;99.90;;;;;;5033942;28;20174;-70
2022/05/21 04:50:48;;;;;;;0.30;0.30;;;15.20;99.90;;;;;;5034688;28;20408;-70
2022/05/21 04:53:14;;;;;;;0.40;0.40;;;15.60;99.90;;;;;;5034410;28;20402;-70
2022/05/21 04:55:40;;;;;;;0.50;0.50;;;16.20;99.90;;;;;;5034450;28;20833;-70
2022/05/21 04:58:06;;;;;;;0.47;0.47;;;16.90;99.90;;;;;;5034566;28;20249;-70
2022/05/21 05:00:32;;;;;;;0.30;0.30;;;17.30;99.90;;;;;;5034554;28;20425;-70
2022/05/21 05:02:58;;;;;;;0.63;0.63;;;17.40;99.90;;;;;;5034437;28;20171;-71
2022/05/21 05:05:24;;;;;;;0.40;0.40;;;17.70;99.90;;;;;;5034330;28;20405;-69
2022/05/21 05:07:50;;;;;;;1.90;0.90;;;18.30;99.90;;;;;;5034314;28;20553;-71
2022/05/21 05:10:16;;;;;;;0.30;0.30;;;18.60;99.90;;;;;;5034173;28;20189;-70
2022/05/21 05:12:41;;;;;;;0.30;0.30;;;18.90;99.90;;;;;;5034113;28;20493;-71
2022/05/21 05:15:07;;;;;;;0.30;0.30;;;19.10;99.60;;;;;;5034097;28;20496;-71
2022/05/21 05:17:34;;;;;;;0.30;0.30;;;19.10;99.40;;;;;;5034080;28;20538;-70
2022/05/21 05:20:00;;;;;;;0.30;0.30;;;19.10;99.30;;;;;;5033736;28;20502;-70
2022/05/21 05:22:26;;;;;;;0.30;0.30;;;19.10;98.80;;;;;;5034024;28;20459;-71
2022/05/21 05:24:52;;;;;;;0.30;0.30;;;19.00;98.30;;;;;;5034000;28;20408;-68
2022/05/21 05:27:18;;;;;;;0.60;0.60;;;18.90;98.90;;;;;;5034113;28;20411;-71
2022/05/21 05:29:44;;;;;;;0.30;0.30;;;18.70;99.10;;;;;;5033872;28;20194;-71
2022/05/21 05:32:10;;;;;;;0.30;0.30;;;18.70;99.70;;;;;;5033789;28;20404;-69
2022/05/21 05:34:36;;;;;;;0.30;0.30;;;18.80;99.90;;;;;;5033952;28;20197;-70
2022/05/21 05:37:03;;;;;;;0.40;0.40;;;19.00;99.30;;;;;;5034296;28;20491;-71
2022/05/21 05:39:29;;;;;;;0.30;0.30;;;18.80;99.10;;;;;;5032506;28;20429;-70
2022/05/21 05:41:55;;;;;;;0.30;0.30;;;18.70;98.40;;;;;;5033903;28;20498;-70
2022/05/21 05:44:21;;;;;;;0.30;0.30;;;18.70;99.90;;;;;;5033389;28;20411;-70
2022/05/21 05:46:47;;;;;;;0.30;0.30;;;18.80;99.90;;;;;;5033657;28;20755;-69
2022/05/21 05:49:13;;;;;;;0.43;0.43;;;18.90;99.90;;;;;;5033505;28;20433;-69
2022/05/21 05:51:39;;;;;;;0.30;0.30;;;19.10;99.10;;;;;;5033506;28;20413;-71
2022/05/21 05:54:04;;;;;;;0.30;0.30;;;19.30;97.60;;;;;;5033280;28;20721;-71
2022/05/21 05:56:30;;;;;;;0.30;0.30;;;19.50;98.40;;;;;;5033424;28;20668;-71
2022/05/21 06:01:41;;;;;;;0.43;0.40;;;19.70;97.20;;;;;;5033558;28;20187;-71
2022/05/21 06:04:07;;;;;;;0.30;0.30;;;19.90;98.60;;;;;;5032080;28;20502;-71
2022/05/21 06:06:32;;;;;;;0.30;0.30;;;19.90;96.10;;;;;;5033353;28;20830;-71
2022/05/21 06:08:59;;;;;;;0.30;0.30;;;19.90;95.40;;;;;;5033483;28;20199;-71
2022/05/21 06:11:25;;;;;;;0.40;0.40;;;20.40;96.50;;;;;;5033333;28;20173;-69
2022/05/21 06:13:50;;;;;;;0.40;0.40;;;21.00;94.20;;;;;;5033228;28;20970;-70
2022/05/21 06:16:16;;;;;;;0.30;0.30;;;22.00;95.10;;;;;;5033342;28;20201;-71
2022/05/21 06:18:43;;;;;;;0.40;0.40;;;23.30;92.80;;;;;;5033347;28;20198;-71
2022/05/21 06:21:09;;;;;;;0.40;0.40;;;24.70;89.20;;;;;;5033196;28;20245;-72
2022/05/21 06:23:35;;;;;;;0.30;0.30;;;26.20;82.20;;;;;;5033000;28;20444;-68
2022/05/21 06:26:01;;;;;;;0.77;0.77;;;27.10;74.60;;;;;;5033376;28;20410;-70
2022/05/21 06:28:28;;;;;;;0.30;0.30;;;27.30;70.10;;;;;;5033160;28;20413;-70
2022/05/21 06:30:54;;;;;;;0.30;0.30;;;28.00;70.00;;;;;;5033110;28;20753;-68
2022/05/21 06:33:26;;;;;;;0.40;0.40;;;28.70;66.80;;;;;;5032999;28;20409;-70
2022/05/21 06:36:12;;;;;;;0.50;0.40;;;29.50;62.10;;;;;;5032983;28;20397;-69
2022/05/21 06:38:41;;;;;;;0.37;0.37;;;30.70;59.10;;;;;;5032942;28;20440;-70
2022/05/21 06:41:08;;;;;;;0.40;0.40;;;31.10;55.80;;;;;;5033007;28;20398;-68
2022/05/21 06:43:34;;;;;;;0.40;0.30;;;31.60;55.40;;;;;;5032983;28;20400;-69
2022/05/21 06:45:59;;;;;;;0.70;0.60;;;32.00;53.50;;;;;;5033140;28;20493;-68
2022/05/21 06:48:25;;;;;;;0.40;0.40;;;32.10;48.10;;;;;;5033057;28;20521;-68
2022/05/21 06:50:51;;;;;;;0.40;0.40;;;32.40;49.90;;;;;;5033280;28;20191;-70
2022/05/21 06:53:16;;;;;;;0.40;0.30;;;32.30;49.70;;;;;;5032738;28;20175;-69
2022/05/21 06:55:42;;;;;;;0.40;0.40;;;31.90;49.20;;;;;;5031715;28;20178;-70
2022/05/21 06:58:08;;;;;;;0.50;0.40;;;31.30;49.20;;;;;;5032917;28;20252;-68
2022/05/21 07:00:34;;;;;;;0.50;0.50;;;30.30;51.30;;;;;;5033108;28;20221;-70
2022/05/21 07:02:59;;;;;;;0.37;0.37;;;29.50;52.00;;;;;;5032661;28;20167;-69
2022/05/21 07:08:36;;;;;;;0.30;0.30;;;28.20;52.20;;;;;;5033066;28;20178;-68
2022/05/21 07:11:02;;;;;;;0.30;0.30;;;28.10;53.40;;;;;;5032922;28;20491;-69
2022/05/21 07:13:30;;;;;;;0.30;0.30;;;26.70;51.00;;;;;;5036084;28;20410;-69
2022/05/21 07:15:57;;;;;;;0.30;0.30;;;26.40;54.10;;;;;;5036310;28;20405;-70
2022/05/21 07:18:25;;;;;;;0.30;0.30;;;26.40;54.80;;;;;;5036244;28;20414;-69
2022/05/21 07:20:50;;;;;;;0.30;0.30;;;26.40;56.30;;;;;;5034845;28;20786;-69
2022/05/21 07:23:17;;;;;;;0.30;0.30;;;25.90;53.20;;;;;;5036062;28;20452;-69
2022/05/21 07:25:42;;;;;;;0.50;0.50;;;25.70;53.00;;;;;;5036289;28;20463;-70
2022/05/21 07:28:09;;;;;;;0.30;0.30;;;25.60;53.30;;;;;;5036068;28;21038;-68
2022/05/21 07:30:37;;;;;;;0.30;0.30;;;26.50;55.40;;;;;;5036027;28;20412;-69
2022/05/21 07:33:04;;;;;;;0.30;0.30;;;27.10;52.70;;;;;;5035784;28;20658;-68
2022/05/21 07:35:30;;;;;;;0.30;0.30;;;28.60;53.30;;;;;;5035974;28;20406;-69
2022/05/21 07:37:56;;;;;;;0.30;0.30;;;29.80;49.50;;;;;;5036170;28;21020;-69
2022/05/21 07:40:24;;;;;;;0.30;0.30;;;30.40;50.00;;;;;;5034575;28;20198;-70
2022/05/21 07:42:51;;;;;;;0.30;0.30;;;31.20;46.40;;;;;;5035651;28;20417;-70
2022/05/21 07:45:19;;;;;;;0.40;0.40;;;31.60;45.80;;;;;;5035833;28;20501;-69
2022/05/21 07:47:46;;;;;;;0.30;0.30;;;31.30;44.30;;;;;;5035974;28;20440;-70
2022/05/21 07:50:12;;;;;;;1.67;1.57;;;31.90;43.40;;;;;;5035738;28;20524;-70
2022/05/21 07:52:38;;;;;;;0.40;0.40;;;32.50;42.00;;;;;;5035590;28;20501;-68
2022/05/21 07:55:06;;;;;;;0.30;0.30;;;32.50;40.30;;;;;;5036281;28;20754;-69
2022/05/21 07:57:32;;;;;;;0.40;0.40;;;33.00;43.40;;;;;;5034236;28;20542;-68
2022/05/21 07:59:58;;;;;;;0.30;0.30;;;33.40;38.30;;;;;;5035520;28;20469;-70
2022/05/21 08:02:24;;;;;;;0.30;0.30;;;33.80;38.50;;;;;;5035144;28;20642;-68
2022/05/21 08:04:49;;;;;;;0.30;0.30;;;33.30;38.60;;;;;;5035066;28;20681;-70
2022/05/21 08:07:16;;;;;;;0.40;0.40;;;33.10;40.40;;;;;;5035056;28;20175;-68
2022/05/21 08:09:42;;;;;;;0.40;0.40;;;32.90;39.20;;;;;;5034984;28;20198;-69
2022/05/21 08:12:14;;;;;;;0.30;0.30;;;31.70;42.60;;;;;;5034598;28;20402;-68
2022/05/21 08:14:43;;;;;;;0.30;0.30;;;30.30;41.90;;;;;;5035082;28;20414;-69
2022/05/21 08:17:09;;;;;;;0.30;0.30;;;28.90;42.20;;;;;;5035298;28;20453;-69
2022/05/21 08:19:36;;;;;;;0.30;0.30;;;28.50;44.80;;;;;;5034634;28;20441;-68
2022/05/21 08:27:30;;;;;;;0.30;0.30;;;27.30;48.10;;;;;;5035463;28;20505;-68
2022/05/21 08:29:56;;;;;;;0.30;0.30;;;27.00;43.20;;;;;;5034961;28;20895;-70
2022/05/21 08:32:22;;;;;;;1.63;1.33;;;29.20;45.80;;;;;;5034852;28;20171;-69
2022/05/21 08:34:48;;;;;;;0.30;0.30;;;31.20;42.00;;;;;;5034944;28;20261;-69
2022/05/21 08:37:13;;;;;;;0.30;0.30;;;32.00;43.70;;;;;;5035161;28;20203;-70
2022/05/21 08:39:39;;;;;;;0.53;0.50;;;33.10;37.70;;;;;;5034804;28;20242;-69
2022/05/21 08:42:13;;;;;;;1.13;0.70;;;32.80;40.50;;;;;;5034710;28;20585;-70
2022/05/21 08:44:45;;;;;;;0.30;0.30;;;33.80;39.00;;;;;;5034713;28;20253;-70
2022/05/21 08:47:19;;;;;;;0.40;0.40;;;35.10;34.70;;;;;;5034823;28;20436;-70
2022/05/21 08:49:58;;;;;;;0.30;0.30;;;35.30;36.60;;;;;;5034407;28;20475;-69
2022/05/21 08:52:44;;;;;;;0.40;0.40;;;34.80;36.20;;;;;;5034689;28;20437;-69
2022/05/21 08:55:18;;;;;;;0.60;0.40;;;33.60;39.30;;;;;;5034439;28;20941;-70
2022/05/21 08:57:46;;;;;;;0.40;0.40;;;33.10;40.10;;;;;;5034454;28;20465;-70
2022/05/21 09:00:19;;;;;;;0.47;0.47;;;33.70;41.30;;;;;;5034388;28;20425;-68
2022/05/21 09:02:46;;;;;;;0.30;0.30;;;34.20;39.90;;;;;;5032903;28;20475;-70
2022/05/21 09:05:16;;;;;;;0.40;0.40;;;34.80;37.20;;;;;;5034432;28;20431;-70
2022/05/21 09:08:21;;;;;;;0.33;0.33;;;35.50;38.10;;;;;;5034444;28;20437;-70
2022/05/21 09:11:01;;;;;;;1.13;1.03;;;36.10;35.60;;;;;;5034197;28;20902;-68
2022/05/21 09:13:46;;;;;;;0.30;0.30;;;34.90;37.80;;;;;;5032894;28;20932;-70
2022/05/21 09:19:00;;;;;;;0.30;0.30;;;31.50;41.50;;;;;;5034131;28;20475;-70
2022/05/21 09:21:28;;;;;;;0.40;0.40;;;31.60;44.90;;;;;;5034295;28;20882;-68
2022/05/21 09:24:03;;;;;;;0.30;0.30;;;29.90;41.90;;;;;;5034010;28;20171;-70
2022/05/21 09:26:44;;;;;;;0.30;0.30;;;30.30;43.00;;;;;;5033874;28;20879;-70
2022/05/21 09:29:16;;;;;;;0.50;0.50;;;31.30;44.00;;;;;;5034050;28;20440;-68
2022/05/21 09:31:42;;;;;;;1.70;0.73;;;31.80;43.20;;;;;;5034154;28;20500;-69
2022/05/21 09:34:13;;;;;;;0.30;0.30;;;32.50;45.90;;;;;;5033476;28;20509;-69
2022/05/21 09:36:39;;;;;;;0.30;0.30;;;32.80;42.10;;;;;;5033922;28;20735;-69
2022/05/21 09:39:05;;;;;;;0.40;0.40;;;32.70;42.30;;;;;;5032540;28;20430;-68
2022/05/21 09:41:32;;;;;;;0.30;0.30;;;33.20;44.30;;;;;;5033729;28;20410;-69
2022/05/21 09:47:12;;;;;;;0.53;0.53;;;33.30;43.10;;;;;;5033682;28;20505;-68
2022/05/21 09:49:39;;;;;;;0.50;0.50;;;31.80;43.00;;;;;;5033684;28;20440;-69
2022/05/21 09:52:20;;;;;;;0.30;0.30;;;32.00;43.20;;;;;;5032117;28;20509;-70
2022/05/21 09:54:46;;;;;;;0.30;0.30;;;31.90;44.90;;;;;;5033710;28;20764;-69
2022/05/21 09:57:39;;;;;;;0.40;0.40;;;31.20;44.00;;;;;;5033833;28;20457;-70
2022/05/21 10:00:23;;;;;;;0.50;0.50;;;30.70;46.50;;;;;;5033487;28;20294;-70
2022/05/21 10:03:00;;;;;;;0.40;0.40;;;31.20;46.50;;;;;;5033273;28;20412;-70
2022/05/21 10:05:35;;;;;;;0.30;0.30;;;30.70;45.90;;;;;;5033674;28;20413;-69
2022/05/21 10:11:31;;;;;;;0.30;0.30;;;30.30;45.00;;;;;;5033624;28;20404;-69
2022/05/21 10:14:03;;;;;;;0.30;0.30;;;30.00;46.10;;;;;;5033342;28;20421;-70
2022/05/21 10:16:51;;;;;;;0.30;0.30;;;30.30;46.00;;;;;;5033490;28;20453;-69
2022/05/21 10:19:46;;;;;;;0.30;0.30;;;30.40;47.30;;;;;;5033186;28;20931;-70
2022/05/21 10:22:30;;;;;;;0.30;0.30;;;29.20;48.30;;;;;;5033074;28;20401;-69
2022/05/21 10:25:25;;;;;;;0.50;0.50;;;28.80;48.70;;;;;;5033422;28;20397;-69
2022/05/21 10:28:13;;;;;;;0.50;0.50;;;29.10;51.10;;;;;;5033305;28;20408;-69
2022/05/21 10:31:16;;;;;;;0.30;0.30;;;28.70;46.80;;;;;;5033294;28;20913;-69
2022/05/21 10:34:08;;;;;;;0.30;0.30;;;28.00;47.80;;;;;;5032989;28;20898;-69
2022/05/21 10:36:59;;;;;;;0.43;0.43;;;28.00;50.20;;;;;;5033310;28;20457;-69
2022/05/21 10:39:38;;;;;;;0.30;0.30;;;28.30;49.80;;;;;;5033226;28;20520;-69
2022/05/21 10:42:25;;;;;;;0.40;0.40;;;28.40;50.20;;;;;;5033095;28;20398;-68
2022/05/21 10:45:16;;;;;;;0.40;0.40;;;28.00;49.20;;;;;;5033138;28;20389;-68
2022/05/21 10:47:51;;;;;;;0.30;0.30;;;28.60;50.70;;;;;;5037207;28;20408;-68
2022/05/21 10:50:19;;;;;;;0.30;0.30;;;27.90;48.40;;;;;;5037062;28;20420;-68
2022/05/21 10:52:51;;;;;;;0.30;0.30;;;27.30;48.70;;;;;;5036953;28;20401;-70
2022/05/21 10:55:27;;;;;;;0.90;0.90;;;27.30;51.60;;;;;;5037062;28;20440;-70
2022/05/21 10:58:12;;;;;;;0.30;0.30;;;26.80;49.60;;;;;;5037005;28;20781;-69
2022/05/21 11:01:01;;;;;;;0.30;0.30;;;26.70;51.50;;;;;;5036684;28;20476;-69
2022/05/21 11:03:58;;;;;;;0.30;0.30;;;26.00;48.60;;;;;;5026627;28;20408;-69
2022/05/21 11:06:47;;;;;;;0.30;0.30;;;25.50;51.50;;;;;;5036892;28;20399;-69
2022/05/21 11:09:35;;;;;;;0.30;0.30;;;25.50;53.70;;;;;;5036504;28;20464;-68
2022/05/21 11:12:25;;;;;;;0.80;0.80;;;25.70;57.20;;;;;;5036434;28;20451;-68
2022/05/21 11:15:08;;;;;;;0.30;0.30;;;25.80;55.20;;;;;;5036522;28;20767;-68
2022/05/21 11:17:48;;;;;;;0.40;0.40;;;25.80;50.70;;;;;;5035078;28;20459;-69
2022/05/21 11:20:22;;;;;;;0.30;0.30;;;25.80;53.40;;;;;;5036289;28;20446;-69
2022/05/21 11:23:01;;;;;;;0.30;0.30;;;25.70;48.40;;;;;;5036354;28;20414;-69
2022/05/21 11:25:32;;;;;;;0.30;0.30;;;26.00;53.50;;;;;;5036516;28;20397;-67
2022/05/21 11:28:28;;;;;;;0.30;0.30;;;26.00;50.20;;;;;;5036538;28;20398;-69
2022/05/21 11:30:57;;;;;;;0.30;0.30;;;25.70;49.90;;;;;;5036221;28;20365;-67
2022/05/21 11:39:07;;;;;;;0.83;0.83;;;25.30;49.50;;;;;;5014754;28;20460;-69
2022/05/21 11:41:55;;;;;;;0.30;0.30;;;25.40;51.70;;;;;;5035969;28;20385;-69
2022/05/21 11:47:16;;;;;;;0.30;0.30;;;25.70;50.50;;;;;;5036148;28;20397;-72
2022/05/21 11:49:41;;;;;;;0.30;0.30;;;25.70;52.60;;;;;;5035835;28;20413;-71
2022/05/21 11:52:26;;;;;;;0.30;0.30;;;25.60;52.10;;;;;;5035782;28;20167;-71
2022/05/21 11:54:51;;;;;;;0.30;0.30;;;25.60;50.90;;;;;;5035682;28;20178;-70
2022/05/21 11:57:36;;;;;;;0.40;0.40;;;25.50;50.30;;;;;;5035539;28;20460;-71
2022/05/21 12:00:16;;;;;;;0.50;0.50;;;25.50;51.20;;;;;;5035769;28;20658;-72
2022/05/21 12:02:53;;;;;;;0.30;0.30;;;25.50;49.00;;;;;;5035604;28;20714;-71
2022/05/21 12:05:46;;;;;;;0.30;0.30;;;25.40;48.20;;;;;;5035542;28;20485;-71
2022/05/21 12:08:34;;;;;;;0.30;0.30;;;25.60;51.80;;;;;;5032952;28;20391;-69
2022/05/21 12:11:06;;;;;;;0.70;0.70;;;25.60;47.60;;;;;;5035371;28;20535;-71
2022/05/21 12:13:35;;;;;;;0.30;0.30;;;25.60;49.50;;;;;;5035234;28;20402;-70
2022/05/21 12:16:00;;;;;;;0.30;0.30;;;25.80;49.80;;;;;;5035370;28;20375;-71
2022/05/21 12:18:37;;;;;;;0.30;0.30;;;25.80;46.80;;;;;;5035251;28;20485;-70
2022/05/21 12:21:06;;;;;;;0.40;0.40;;;25.80;50.10;;;;;;5035214;28;20209;-72
2022/05/21 12:23:32;;;;;;;0.30;0.30;;;25.80;48.60;;;;;;5035018;28;20505;-71
2022/05/21 12:26:12;;;;;;;0.83;0.83;;;25.80;47.50;;;;;;5035350;28;20485;-71
2022/05/21 12:28:46;;;;;;;1.47;1.47;;;25.80;48.40;;;;;;5035169;28;20189;-70
2022/05/21 12:31:36;;;;;;;0.30;0.30;;;25.80;48.90;;;;;;5035258;28;20411;-71
2022/05/21 12:34:47;;;;;;;0.30;0.30;;;25.90;50.40;;;;;;5035159;28;20380;-69
2022/05/21 12:37:50;;;;;;;0.30;0.30;;;26.00;49.00;;;;;;5022797;28;20468;-71
2022/05/21 12:40:19;;;;;;;0.30;0.30;;;25.90;51.90;;;;;;5013041;28;20838;-71
2022/05/21 12:42:49;;;;;;;0.77;0.77;;;25.80;49.50;;;;;;5030952;28;20508;-70
2022/05/21 12:45:33;;;;;;;0.30;0.30;;;25.60;49.00;;;;;;5034811;28;20743;-70
2022/05/21 12:48:29;;;;;;;0.40;0.40;;;25.00;45.80;;;;;;5035162;28;20836;-70
2022/05/21 12:50:57;;;;;;;0.30;0.30;;;25.20;48.30;;;;;;5033972;28;20406;-71
2022/05/21 12:53:36;;;;;;;0.30;0.30;;;25.50;51.60;;;;;;5034681;28;20383;-70
2022/05/21 12:56:18;;;;;;;0.40;0.40;;;25.30;49.40;;;;;;5034693;28;20415;-71
2022/05/21 12:58:44;;;;;;;0.30;0.30;;;25.30;50.00;;;;;;5034612;28;20772;-71
2022/05/21 13:01:23;;;;;;;0.67;0.67;;;25.50;53.00;;;;;;5034461;28;20467;-72
2022/05/21 13:03:48;;;;;;;0.30;0.30;;;25.50;51.00;;;;;;5034386;28;20408;-70
2022/05/21 13:06:23;;;;;;;0.30;0.30;;;25.40;51.30;;;;;;5034441;28;20410;-71
2022/05/21 13:08:52;;;;;;;0.30;0.30;;;25.60;49.50;;;;;;5033923;28;20193;-70
2022/05/21 13:11:23;;;;;;;0.30;0.30;;;25.60;49.10;;;;;;5034255;28;20766;-71
2022/05/21 13:13:59;;;;;;;0.30;0.30;;;25.30;50.70;;;;;;5034020;28;20446;-71
2022/05/21 13:16:27;;;;;;;0.60;0.60;;;25.30;50.20;;;;;;5034402;28;20378;-69
2022/05/21 13:19:17;;;;;;;0.30;0.30;;;25.20;49.10;;;;;;5034072;28;20497;-70
2022/05/21 13:21:59;;;;;;;0.30;0.30;;;25.20;50.10;;;;;;5034321;28;20381;-70
2022/05/21 13:24:58;;;;;;;0.60;0.60;;;24.90;49.40;;;;;;5034177;28;20384;-69
2022/05/21 13:27:24;;;;;;;0.30;0.30;;;24.80;49.90;;;;;;5034235;28;20403;-70
2022/05/21 13:29:52;;;;;;;0.30;0.30;;;24.80;48.70;;;;;;5033894;28;20439;-71
2022/05/21 13:32:25;;;;;;;0.30;0.30;;;25.00;51.60;;;;;;5033948;28;20383;-70
2022/05/21 13:34:53;;;;;;;0.30;0.30;;;25.00;48.20;;;;;;5034338;28;20388;-71
2022/05/21 13:37:28;;;;;;;0.30;0.30;;;25.20;50.00;;;;;;5033850;28;20506;-70
2022/05/21 13:40:33;;;;;;;0.30;0.30;;;25.20;49.40;;;;;;5033808;28;20394;-70
2022/05/21 13:43:07;;;;;;;0.30;0.30;;;25.30;50.60;;;;;;5033052;28;20462;-70
2022/05/21 13:45:38;;;;;;;0.30;0.30;;;25.20;49.50;;;;;;5033708;28;20402;-71
2022/05/21 13:48:28;;;;;;;0.30;0.30;;;25.20;47.50;;;;;;5033932;28;20412;-71